createdAt,value
2023-03-07T00:00:25.164Z,72.14
2023-03-07T00:03:49.362Z,71.96
2023-03-07T00:07:12.146Z,72.26
2023-03-07T00:10:32.444Z,72.11
2023-03-07T00:13:43.681Z,72.34
2023-03-07T00:16:54.108Z,71.77
2023-03-07T00:20:01.131Z,71.67
2023-03-07T00:23:22.683Z,71.87
2023-03-07T00:26:29.820Z,72.12
2023-03-07T00:29:39.805Z,72.52
2023-03-07T00:32:46.869Z,73.02
2023-03-07T00:35:59.254Z,73.00
2023-03-07T00:39:05.765Z,73.15
2023-03-07T00:42:09.898Z,73.69
2023-03-07T00:45:18.685Z,73.50
2023-03-07T00:48:23.427Z,73.43
2023-03-07T00:51:26.755Z,73.58
2023-03-07T00:54:37.765Z,73.33
2023-03-07T00:57:44.441Z,72.97
2023-03-07T01:00:48.988Z,73.21
2023-03-07T01:03:54.273Z,72.68
2023-03-07T01:07:14.850Z,72.54
2023-03-07T01:10:28.135Z,71.93
2023-03-07T01:13:38.867Z,72.45
2023-03-07T01:16:49.645Z,72.52
2023-03-07T01:19:59.659Z,73.08
2023-03-07T01:23:22.818Z,73.17
2023-03-07T01:26:28.872Z,72.98
2023-03-07T01:29:54.829Z,72.70
2023-03-07T01:33:18.065Z,72.68
2023-03-07T01:36:33.432Z,72.75
2023-03-07T01:39:40.562Z,72.50
2023-03-07T01:42:47.402Z,72.29
2023-03-07T01:46:19.670Z,72.54
2023-03-07T01:49:37.450Z,72.37
2023-03-07T01:52:57.808Z,72.49
2023-03-07T01:56:08.239Z,72.11
2023-03-07T01:59:29.334Z,73.08
2023-03-07T02:02:47.841Z,72.97
2023-03-07T02:06:08.021Z,72.80
2023-03-07T02:09:31.775Z,72.61
2023-03-07T02:12:48.946Z,72.99
2023-03-07T02:16:13.055Z,72.81
2023-03-07T02:19:42.164Z,72.18
2023-03-07T02:22:56.058Z,72.33
2023-03-07T02:26:16.392Z,72.11
2023-03-07T02:29:21.677Z,71.80
2023-03-07T02:32:25.875Z,72.06
2023-03-07T02:35:36.305Z,72.75
2023-03-07T02:39:02.595Z,72.68
2023-03-07T02:42:30.646Z,73.23
2023-03-07T02:45:49.762Z,73.99
2023-03-07T02:49:00.456Z,74.07
2023-03-07T02:52:05.278Z,74.39
2023-03-07T02:55:16.242Z,73.32
2023-03-07T02:58:33.255Z,73.14
2023-03-07T03:01:43.476Z,73.15
2023-03-07T03:04:53.008Z,72.60
2023-03-07T03:07:59.913Z,72.00
2023-03-07T03:11:02.922Z,72.56
2023-03-07T03:14:15.870Z,72.16
2023-03-07T03:17:31.952Z,72.14
2023-03-07T03:21:03.451Z,72.12
2023-03-07T03:24:37.494Z,72.17
2023-03-07T03:27:54.601Z,71.89
2023-03-07T03:31:13.042Z,72.11
2023-03-07T03:34:17.859Z,71.83
2023-03-07T03:37:29.058Z,71.30
2023-03-07T03:40:48.392Z,70.29
2023-03-07T03:44:05.938Z,70.95
2023-03-07T03:47:09.467Z,70.07
2023-03-07T03:50:16.020Z,69.76
2023-03-07T03:53:24.566Z,69.60
2023-03-07T03:56:42.799Z,69.51
2023-03-07T04:00:02.653Z,69.45
2023-03-07T04:03:26.261Z,69.61
2023-03-07T04:06:43.859Z,69.68
2023-03-07T04:10:03.545Z,70.45
2023-03-07T04:13:30.987Z,69.28
2023-03-07T04:16:47.732Z,69.28
2023-03-07T04:20:05.421Z,69.72
2023-03-07T04:23:34.582Z,69.42
2023-03-07T04:26:38.220Z,69.78
2023-03-07T04:29:46.896Z,70.16
2023-03-07T04:33:00.328Z,69.93
2023-03-07T04:36:17.204Z,69.91
2023-03-07T04:39:40.306Z,69.99
2023-03-07T04:42:52.108Z,69.52
2023-03-07T04:46:18.026Z,69.34
2023-03-07T04:49:32.908Z,69.50
2023-03-07T04:52:49.334Z,69.71
2023-03-07T04:56:28.233Z,69.93
2023-03-07T04:59:43.041Z,69.87
2023-03-07T05:03:11.195Z,69.31
2023-03-07T05:06:37.076Z,69.04
2023-03-07T05:09:51.371Z,68.55
2023-03-07T05:13:10.588Z,68.53
2023-03-07T05:16:41.323Z,68.70
2023-03-07T05:20:03.148Z,68.76
2023-03-07T05:23:08.993Z,68.52
2023-03-07T05:26:13.144Z,68.32
2023-03-07T05:29:24.808Z,68.15
2023-03-07T05:32:41.523Z,68.83
2023-03-07T05:36:00.429Z,68.66
2023-03-07T05:39:13.288Z,68.67
2023-03-07T05:42:17.087Z,70.00
2023-03-07T05:45:23.959Z,69.37
2023-03-07T05:48:35.197Z,68.59
2023-03-07T05:51:47.907Z,68.90
2023-03-07T05:55:14.214Z,69.06
2023-03-07T05:58:43.064Z,68.79
2023-03-07T06:02:13.152Z,69.82
2023-03-07T06:05:29.197Z,69.38
2023-03-07T06:08:51.107Z,68.53
2023-03-07T06:16:27.823Z,67.64
2023-03-07T06:19:45.430Z,68.28
2023-03-07T06:23:17.192Z,67.58
2023-03-07T06:26:26.883Z,67.13
2023-03-07T06:29:31.780Z,67.63
2023-03-07T06:32:36.794Z,67.40
2023-03-07T06:35:53.546Z,67.50
2023-03-07T06:39:07.944Z,67.01
2023-03-07T06:42:29.261Z,67.12
2023-03-07T06:45:53.556Z,67.15
2023-03-07T07:02:50.822Z,65.78
2023-03-07T07:11:26.170Z,65.30
2023-03-07T07:15:26.105Z,65.59
2023-03-07T07:18:37.177Z,65.18
2023-03-07T07:21:51.684Z,64.83
2023-03-07T07:24:55.785Z,64.72
2023-03-07T07:27:59.941Z,64.68
2023-03-07T07:31:04.274Z,65.21
2023-03-07T07:34:14.093Z,65.02
2023-03-07T07:37:21.585Z,64.13
2023-03-07T07:40:34.904Z,63.42
2023-03-07T07:43:47.624Z,63.60
2023-03-07T07:47:04.114Z,63.00
2023-03-07T07:50:11.576Z,63.27
2023-03-07T07:53:41.605Z,63.27
2023-03-07T07:56:52.882Z,62.37
2023-03-07T08:00:58.821Z,61.86
2023-03-07T08:04:36.563Z,62.96
2023-03-07T08:08:00.744Z,62.45
2023-03-07T08:11:17.910Z,60.78
2023-03-07T08:14:58.873Z,60.07
2023-03-07T08:18:40.750Z,60.06
2023-03-07T08:22:08.370Z,60.08
2023-03-07T08:25:35.900Z,60.74
2023-03-07T08:29:01.032Z,60.32
2023-03-07T08:32:21.014Z,59.67
2023-03-07T08:35:47.498Z,59.81
2023-03-07T08:39:02.521Z,54.05
2023-03-07T08:42:21.130Z,47.72
2023-03-07T08:51:05.690Z,50.81
2023-03-07T08:54:28.984Z,48.46
2023-03-07T08:57:34.592Z,46.94
2023-03-07T09:00:42.304Z,46.79
2023-03-07T09:04:05.752Z,45.40
2023-03-07T09:07:27.170Z,46.83
2023-03-07T09:10:41.220Z,45.93
2023-03-07T09:13:54.944Z,46.19
2023-03-07T09:17:00.026Z,46.81
2023-03-07T09:20:12.960Z,46.36
2023-03-07T09:23:29.461Z,47.02
2023-03-07T09:26:39.736Z,46.56
2023-03-07T09:30:37.683Z,44.17
2023-03-07T09:33:47.076Z,43.39
2023-03-07T09:37:48.343Z,42.62
2023-03-07T09:41:41.916Z,41.80
2023-03-07T09:45:46.047Z,42.21
2023-03-07T09:55:11.781Z,41.03
2023-03-07T09:58:45.513Z,41.87
2023-03-07T10:02:49.077Z,42.99
2023-03-07T10:06:29.786Z,42.32
2023-03-07T10:21:08.228Z,38.16
2023-03-07T10:25:10.227Z,38.55
2023-03-07T10:28:56.778Z,38.24
2023-03-07T10:38:22.426Z,36.23
2023-03-07T10:42:49.993Z,35.36
2023-03-07T10:46:25.235Z,36.80
2023-03-07T10:50:21.370Z,37.62
2023-03-07T10:53:35.011Z,38.01
2023-03-07T10:57:15.629Z,36.99
2023-03-07T11:00:56.547Z,36.88
2023-03-07T11:04:21.968Z,37.34
2023-03-07T11:07:55.745Z,36.30
2023-03-07T11:11:05.937Z,36.89
2023-03-07T11:14:15.461Z,36.32
2023-03-07T11:17:56.371Z,36.06
2023-03-07T11:22:26.405Z,38.62
2023-03-07T11:25:51.210Z,38.84
2023-03-07T11:29:13.542Z,38.03
2023-03-07T11:32:26.299Z,37.15
2023-03-07T11:35:49.920Z,37.13
2023-03-07T11:39:17.739Z,37.48
2023-03-07T11:42:35.547Z,39.16
2023-03-07T11:46:04.010Z,38.66
2023-03-07T11:49:22.191Z,39.33
2023-03-07T11:58:09.850Z,48.24
2023-03-07T12:01:20.035Z,48.41
2023-03-07T12:04:42.409Z,50.34
2023-03-07T12:09:03.009Z,48.85
2023-03-07T12:12:47.957Z,47.68
2023-03-07T12:16:31.987Z,48.08
2023-03-07T12:20:15.124Z,47.79
2023-03-07T12:24:17.958Z,47.66
2023-03-07T12:27:34.891Z,48.87
2023-03-07T12:31:08.016Z,47.42
2023-03-07T12:39:45.961Z,49.22
2023-03-07T12:43:34.259Z,49.87
2023-03-07T12:47:05.207Z,48.86
2023-03-07T12:51:01.542Z,48.09
2023-03-07T12:54:22.794Z,47.61
2023-03-07T12:57:43.900Z,47.51
2023-03-07T13:00:55.587Z,47.34
2023-03-07T13:08:28.785Z,44.92
2023-03-07T13:23:55.320Z,46.44
2023-03-07T13:27:15.313Z,48.64
2023-03-07T13:30:23.560Z,49.98
2023-03-07T13:33:35.751Z,49.53
2023-03-07T13:36:53.217Z,49.99
2023-03-07T13:40:06.732Z,49.02
2023-03-07T13:43:27.630Z,50.02
2023-03-07T13:46:51.010Z,48.98
2023-03-07T13:50:10.896Z,49.93
2023-03-07T13:59:11.836Z,50.63
2023-03-07T14:02:23.450Z,50.81
2023-03-07T14:05:33.487Z,49.37
2023-03-07T14:08:37.989Z,50.14
2023-03-07T14:12:22.911Z,50.16
2023-03-07T14:15:33.180Z,49.86
2023-03-07T14:18:49.451Z,49.63
2023-03-07T14:22:24.560Z,49.69
2023-03-07T14:25:44.104Z,50.17
2023-03-07T14:29:22.549Z,51.58
2023-03-07T14:32:31.857Z,50.54
2023-03-07T14:35:45.767Z,50.29
2023-03-07T14:38:51.386Z,51.41
2023-03-07T14:42:02.414Z,50.99
2023-03-07T14:45:30.844Z,53.15
2023-03-07T14:49:02.780Z,54.00
2023-03-07T14:52:21.425Z,52.96
2023-03-07T14:55:39.842Z,53.89
2023-03-07T14:58:55.992Z,53.86
2023-03-07T15:02:19.104Z,53.30
2023-03-07T15:05:36.723Z,53.29
2023-03-07T15:09:11.721Z,53.62
2023-03-07T15:12:28.134Z,54.36
2023-03-07T15:15:50.910Z,56.64
2023-03-07T15:19:09.998Z,56.76
2023-03-07T15:22:29.606Z,57.10
2023-03-07T15:25:43.717Z,56.21
2023-03-07T15:29:11.166Z,57.10
2023-03-07T15:32:39.315Z,56.95
2023-03-07T15:48:52.283Z,61.92
2023-03-07T15:56:13.271Z,61.62
2023-03-07T15:59:54.872Z,62.11
2023-03-07T16:03:42.263Z,59.92
2023-03-07T16:07:03.650Z,60.13
2023-03-07T16:10:14.741Z,61.09
2023-03-07T16:13:32.621Z,60.87
2023-03-07T16:16:44.434Z,60.78
2023-03-07T16:20:11.522Z,61.15
2023-03-07T16:23:50.866Z,61.35
2023-03-07T16:27:32.879Z,60.22
2023-03-07T16:30:50.566Z,60.62
2023-03-07T16:34:09.809Z,61.35
2023-03-07T16:37:23.193Z,61.96
2023-03-07T16:40:39.925Z,61.33
2023-03-07T16:44:12.692Z,61.34
2023-03-07T16:47:42.412Z,61.06
2023-03-07T16:50:54.308Z,62.44
2023-03-07T16:54:00.049Z,61.86
2023-03-07T16:57:32.550Z,61.46
2023-03-07T17:01:20.025Z,61.67
2023-03-07T17:05:01.068Z,61.10
2023-03-07T17:08:25.292Z,61.69
2023-03-07T17:11:39.401Z,61.11
2023-03-07T17:15:06.347Z,62.56
2023-03-07T17:18:26.812Z,61.83
2023-03-07T17:21:58.818Z,61.67
2023-03-07T17:25:34.987Z,61.96
2023-03-07T17:29:00.008Z,61.87
2023-03-07T17:32:19.798Z,62.09
2023-03-07T17:35:40.835Z,62.36
2023-03-07T17:39:09.142Z,63.10
2023-03-07T17:42:38.468Z,62.98
2023-03-07T17:46:05.378Z,62.58
2023-03-07T17:49:23.159Z,63.31
2023-03-07T17:52:42.483Z,63.14
2023-03-07T17:55:59.094Z,63.48
2023-03-07T17:59:21.490Z,63.28
2023-03-07T18:02:51.838Z,63.31
2023-03-07T18:06:13.039Z,63.49
2023-03-07T18:09:38.534Z,63.06
2023-03-07T18:13:11.699Z,63.34
2023-03-07T18:16:20.177Z,63.57
2023-03-07T18:19:45.570Z,63.25
2023-03-07T18:23:10.454Z,63.25
2023-03-07T18:26:37.456Z,63.59
2023-03-07T18:30:26.673Z,63.18
2023-03-07T18:34:01.356Z,63.45
2023-03-07T18:38:22.702Z,63.16
2023-03-07T18:41:56.873Z,63.41
2023-03-07T18:45:40.473Z,63.30
2023-03-07T18:49:42.007Z,63.03
2023-03-07T18:53:39.511Z,62.87
2023-03-07T18:57:25.634Z,62.88
2023-03-07T19:01:29.206Z,62.90
2023-03-07T19:05:03.827Z,62.98
2023-03-07T19:08:43.547Z,63.15
2023-03-07T19:12:02.998Z,63.60
2023-03-07T19:15:34.766Z,63.02
2023-03-07T19:18:58.779Z,62.78
2023-03-07T19:27:50.677Z,61.97
2023-03-07T19:31:28.700Z,62.30
2023-03-07T19:35:19.543Z,62.23
2023-03-07T19:38:57.598Z,62.89
2023-03-07T19:42:35.342Z,63.01
2023-03-07T19:46:30.098Z,62.52
2023-03-07T19:50:14.077Z,63.03
2023-03-07T19:53:43.285Z,63.56
2023-03-07T19:57:26.167Z,63.26
2023-03-07T20:00:49.358Z,62.77
2023-03-07T20:04:26.900Z,62.52
2023-03-07T20:08:10.971Z,62.23
2023-03-07T20:11:54.010Z,62.85
2023-03-07T20:15:41.683Z,63.07
2023-03-07T20:19:19.783Z,63.30
2023-03-07T20:22:41.486Z,63.41
2023-03-07T20:26:12.559Z,64.10
2023-03-07T20:29:44.309Z,63.58
2023-03-07T20:33:34.118Z,64.05
2023-03-07T20:37:00.310Z,63.19
2023-03-07T20:40:25.274Z,62.43
2023-03-07T20:43:46.772Z,61.99
2023-03-07T20:47:09.347Z,61.38
2023-03-07T20:54:28.934Z,61.40
2023-03-07T20:58:24.341Z,60.83
2023-03-07T21:01:53.208Z,59.92
2023-03-07T21:05:25.087Z,60.50
2023-03-07T21:09:02.422Z,60.44
2023-03-07T21:12:33.681Z,61.04
2023-03-07T21:16:25.859Z,60.82
2023-03-07T21:20:44.676Z,61.76
2023-03-07T21:24:24.541Z,61.58
2023-03-07T21:28:07.772Z,61.97
2023-03-07T21:31:33.135Z,62.31
2023-03-07T21:35:22.325Z,61.41
2023-03-07T21:39:28.407Z,61.66
2023-03-07T21:42:57.364Z,62.25
2023-03-07T21:46:18.032Z,62.13
2023-03-07T21:49:32.750Z,61.48
2023-03-07T21:56:59.115Z,62.33
2023-03-07T22:00:50.190Z,62.50
2023-03-07T22:04:44.656Z,62.72
2023-03-07T22:08:19.475Z,63.05
2023-03-07T22:11:36.349Z,63.45
2023-03-07T22:14:58.722Z,64.79
2023-03-07T22:18:16.227Z,65.07
2023-03-07T22:21:44.857Z,65.63
2023-03-07T22:25:24.127Z,66.58
2023-03-07T22:29:08.318Z,66.12
2023-03-07T22:32:34.389Z,67.49
2023-03-07T22:35:56.544Z,67.13
2023-03-07T22:39:30.586Z,68.36
2023-03-07T22:42:48.416Z,68.81
2023-03-07T22:46:22.903Z,70.14
2023-03-07T22:49:54.851Z,69.96
2023-03-07T22:53:16.268Z,69.69
2023-03-07T22:56:40.023Z,70.29
2023-03-07T23:03:44.290Z,70.46
2023-03-07T23:10:43.334Z,70.82
2023-03-07T23:14:30.447Z,71.58
2023-03-07T23:18:34.833Z,71.08
2023-03-07T23:22:23.027Z,71.27
2023-03-07T23:25:50.990Z,71.62
2023-03-07T23:29:10.425Z,72.09
2023-03-07T23:32:46.253Z,72.27
2023-03-07T23:36:35.525Z,72.43
2023-03-07T23:40:35.536Z,72.42
2023-03-07T23:44:07.366Z,73.15
2023-03-07T23:47:30.532Z,74.06
2023-03-07T23:50:52.897Z,74.18
2023-03-07T23:54:17.901Z,74.44
2023-03-07T23:57:43.535Z,73.76
